SHM weather

Nanki Shirahama Airport
Shirahama, Wakayama Prefecture, Japan

Public forecast

Using degrees Celsius for public forecast. Weather courtesy of forecast.io.

Current aviation weather report (METAR) for Nanki Shirahama Airport

Retrieved 2019/10/21 06:00 UTC (4 minutes ago):

RJBD 210600Z VRB02KT 9000 SHRA FEW003 SCT020 FEW030CB BKN080 19/18 Q1011

Closest aviation forecast (TAF) to Nanki Shirahama Airport

Closest forecast is Kansai International Airport, 46.3 nm (85.8 km) N. Retrieved 2019/10/21 06:00 UTC (4 minutes ago):

TAF RJBB 210506Z 2106/2212 22004KT 9000 -RA FEW020 SCT035 BKN050 BECMG 2107/2109 05014KT BECMG 2110/2112 04026KT TEMPO 2112/2118 04028G40KT 3000 SHRA BR FEW004 BKN008 BKN015 BECMG 2121/2200 33022KT